sensor_id;sensor_type;location;lat;lon;timestamp;pressure;altitude;pressure_sealevel;temperature
69435;BMP180;56625;54.322;18.582;2023-06-04T00:00:03;101632.00;;;8.30
69435;BMP180;56625;54.322;18.582;2023-06-04T00:02:31;101633.60;;;8.30
69435;BMP180;56625;54.322;18.582;2023-06-04T00:04:59;101629.60;;;8.24
69435;BMP180;56625;54.322;18.582;2023-06-04T00:07:27;101624.20;;;8.20
69435;BMP180;56625;54.322;18.582;2023-06-04T00:09:55;101617.40;;;8.20
69435;BMP180;56625;54.322;18.582;2023-06-04T00:12:23;101619.20;;;8.20
69435;BMP180;56625;54.322;18.582;2023-06-04T00:14:51;101616.80;;;8.20
69435;BMP180;56625;54.322;18.582;2023-06-04T00:17:19;101609.40;;;8.10
69435;BMP180;56625;54.322;18.582;2023-06-04T00:19:47;101610.00;;;8.10
69435;BMP180;56625;54.322;18.582;2023-06-04T00:22:15;101611.20;;;8.10
69435;BMP180;56625;54.322;18.582;2023-06-04T00:24:42;101610.20;;;8.10
69435;BMP180;56625;54.322;18.582;2023-06-04T00:27:10;101616.00;;;8.10
69435;BMP180;56625;54.322;18.582;2023-06-04T00:29:38;101612.00;;;8.10
69435;BMP180;56625;54.322;18.582;2023-06-04T00:32:07;101609.80;;;8.00
69435;BMP180;56625;54.322;18.582;2023-06-04T00:34:35;101606.00;;;8.00
69435;BMP180;56625;54.322;18.582;2023-06-04T00:37:03;101608.60;;;8.00
69435;BMP180;56625;54.322;18.582;2023-06-04T00:39:32;101614.60;;;8.00
69435;BMP180;56625;54.322;18.582;2023-06-04T00:42:00;101615.80;;;8.00
69435;BMP180;56625;54.322;18.582;2023-06-04T00:44:28;101614.60;;;7.96
69435;BMP180;56625;54.322;18.582;2023-06-04T00:46:57;101612.60;;;7.96
69435;BMP180;56625;54.322;18.582;2023-06-04T00:49:24;101609.20;;;7.96
69435;BMP180;56625;54.322;18.582;2023-06-04T00:51:52;101610.40;;;8.00
69435;BMP180;56625;54.322;18.582;2023-06-04T00:54:20;101604.20;;;8.00
69435;BMP180;56625;54.322;18.582;2023-06-04T00:56:50;101600.60;;;7.90
69435;BMP180;56625;54.322;18.582;2023-06-04T00:59:18;101600.80;;;7.90
69435;BMP180;56625;54.322;18.582;2023-06-04T01:01:56;101598.80;;;7.90
69435;BMP180;56625;54.322;18.582;2023-06-04T01:04:36;101591.80;;;7.80
69435;BMP180;56625;54.322;18.582;2023-06-04T01:07:08;101590.40;;;7.80
69435;BMP180;56625;54.322;18.582;2023-06-04T01:09:37;101592.40;;;7.90
69435;BMP180;56625;54.322;18.582;2023-06-04T01:12:07;101588.80;;;7.98
69435;BMP180;56625;54.322;18.582;2023-06-04T01:14:35;101592.20;;;8.00
69435;BMP180;56625;54.322;18.582;2023-06-04T01:17:26;101589.60;;;8.10
69435;BMP180;56625;54.322;18.582;2023-06-04T01:25:40;101591.60;;;8.10
69435;BMP180;56625;54.322;18.582;2023-06-04T01:28:13;101585.60;;;8.20
69435;BMP180;56625;54.322;18.582;2023-06-04T01:30:45;101584.20;;;8.20
69435;BMP180;56625;54.322;18.582;2023-06-04T01:33:18;101586.20;;;8.18
69435;BMP180;56625;54.322;18.582;2023-06-04T01:35:46;101585.40;;;8.20
69435;BMP180;56625;54.322;18.582;2023-06-04T01:38:14;101585.60;;;8.20
69435;BMP180;56625;54.322;18.582;2023-06-04T01:40:42;101585.40;;;8.34
69435;BMP180;56625;54.322;18.582;2023-06-04T01:43:10;101584.60;;;8.30
69435;BMP180;56625;54.322;18.582;2023-06-04T01:45:38;101579.40;;;8.28
69435;BMP180;56625;54.322;18.582;2023-06-04T01:48:06;101577.00;;;8.20
69435;BMP180;56625;54.322;18.582;2023-06-04T01:50:34;101578.00;;;8.20
69435;BMP180;56625;54.322;18.582;2023-06-04T01:53:02;101575.60;;;8.22
69435;BMP180;56625;54.322;18.582;2023-06-04T01:55:30;101575.60;;;8.30
69435;BMP180;56625;54.322;18.582;2023-06-04T01:58:01;101577.40;;;8.28
69435;BMP180;56625;54.322;18.582;2023-06-04T02:00:29;101577.20;;;8.30
69435;BMP180;56625;54.322;18.582;2023-06-04T02:02:57;101575.40;;;8.30
69435;BMP180;56625;54.322;18.582;2023-06-04T02:05:25;101572.40;;;8.20
69435;BMP180;56625;54.322;18.582;2023-06-04T02:07:54;101574.80;;;8.10
69435;BMP180;56625;54.322;18.582;2023-06-04T02:10:22;101569.80;;;8.00
69435;BMP180;56625;54.322;18.582;2023-06-04T02:15:25;101563.60;;;8.00
69435;BMP180;56625;54.322;18.582;2023-06-04T02:17:59;101564.40;;;8.00
69435;BMP180;56625;54.322;18.582;2023-06-04T02:20:29;101565.00;;;8.00
69435;BMP180;56625;54.322;18.582;2023-06-04T02:22:57;101565.40;;;8.00
69435;BMP180;56625;54.322;18.582;2023-06-04T02:25:25;101562.20;;;8.00
69435;BMP180;56625;54.322;18.582;2023-06-04T02:27:53;101565.80;;;8.10
69435;BMP180;56625;54.322;18.582;2023-06-04T02:30:21;101563.40;;;8.10
69435;BMP180;56625;54.322;18.582;2023-06-04T02:32:48;101561.60;;;8.20
69435;BMP180;56625;54.322;18.582;2023-06-04T02:35:20;101564.60;;;8.30
69435;BMP180;56625;54.322;18.582;2023-06-04T02:37:50;101561.20;;;8.30
69435;BMP180;56625;54.322;18.582;2023-06-04T02:40:18;101559.40;;;8.40
69435;BMP180;56625;54.322;18.582;2023-06-04T02:42:46;101560.20;;;8.40
69435;BMP180;56625;54.322;18.582;2023-06-04T02:45:14;101559.20;;;8.50
69435;BMP180;56625;54.322;18.582;2023-06-04T02:47:42;101562.60;;;8.50
69435;BMP180;56625;54.322;18.582;2023-06-04T02:50:12;101561.40;;;8.60
69435;BMP180;56625;54.322;18.582;2023-06-04T02:52:41;101556.20;;;8.82
69435;BMP180;56625;54.322;18.582;2023-06-04T02:55:11;101553.40;;;9.12
69435;BMP180;56625;54.322;18.582;2023-06-04T02:57:42;101553.60;;;9.10
69435;BMP180;56625;54.322;18.582;2023-06-04T03:00:13;101551.00;;;9.08
69435;BMP180;56625;54.322;18.582;2023-06-04T03:02:47;101547.40;;;9.40
69435;BMP180;56625;54.322;18.582;2023-06-04T03:05:17;101541.20;;;9.70
69435;BMP180;56625;54.322;18.582;2023-06-04T03:07:46;101541.80;;;9.80
69435;BMP180;56625;54.322;18.582;2023-06-04T03:10:15;101544.40;;;9.80
69435;BMP180;56625;54.322;18.582;2023-06-04T03:12:44;101549.20;;;9.70
69435;BMP180;56625;54.322;18.582;2023-06-04T03:15:12;101551.40;;;9.70
69435;BMP180;56625;54.322;18.582;2023-06-04T03:17:41;101551.40;;;9.80
69435;BMP180;56625;54.322;18.582;2023-06-04T03:20:10;101546.80;;;9.92
69435;BMP180;56625;54.322;18.582;2023-06-04T03:22:38;101546.60;;;10.10
69435;BMP180;56625;54.322;18.582;2023-06-04T03:25:06;101542.80;;;10.30
69435;BMP180;56625;54.322;18.582;2023-06-04T03:27:35;101538.40;;;10.64
69435;BMP180;56625;54.322;18.582;2023-06-04T03:30:03;101536.60;;;11.08
69435;BMP180;56625;54.322;18.582;2023-06-04T03:32:32;101536.00;;;11.54
69435;BMP180;56625;54.322;18.582;2023-06-04T03:35:01;101537.60;;;11.86
69435;BMP180;56625;54.322;18.582;2023-06-04T03:37:29;101534.00;;;12.10
69435;BMP180;56625;54.322;18.582;2023-06-04T03:39:59;101530.40;;;12.30
69435;BMP180;56625;54.322;18.582;2023-06-04T03:42:27;101526.20;;;12.52
69435;BMP180;56625;54.322;18.582;2023-06-04T03:44:55;101523.40;;;12.70
69435;BMP180;56625;54.322;18.582;2023-06-04T03:47:25;101523.00;;;12.90
69435;BMP180;56625;54.322;18.582;2023-06-04T03:49:53;101520.80;;;13.00
69435;BMP180;56625;54.322;18.582;2023-06-04T03:52:21;101523.00;;;13.18
69435;BMP180;56625;54.322;18.582;2023-06-04T03:54:49;101525.20;;;13.26
69435;BMP180;56625;54.322;18.582;2023-06-04T03:57:17;101517.40;;;13.40
69435;BMP180;56625;54.322;18.582;2023-06-04T03:59:45;101515.60;;;13.50
69435;BMP180;56625;54.322;18.582;2023-06-04T04:02:13;101519.40;;;13.54
69435;BMP180;56625;54.322;18.582;2023-06-04T04:04:41;101516.40;;;13.56
69435;BMP180;56625;54.322;18.582;2023-06-04T04:07:09;101517.00;;;13.56
69435;BMP180;56625;54.322;18.582;2023-06-04T04:09:38;101512.80;;;13.60
69435;BMP180;56625;54.322;18.582;2023-06-04T04:12:06;101516.60;;;13.60
69435;BMP180;56625;54.322;18.582;2023-06-04T04:14:34;101510.60;;;13.70
69435;BMP180;56625;54.322;18.582;2023-06-04T04:17:02;101512.20;;;13.70
69435;BMP180;56625;54.322;18.582;2023-06-04T04:19:30;101507.00;;;13.70
69435;BMP180;56625;54.322;18.582;2023-06-04T04:21:58;101508.80;;;13.70
69435;BMP180;56625;54.322;18.582;2023-06-04T04:24:27;101506.40;;;13.70
69435;BMP180;56625;54.322;18.582;2023-06-04T04:26:56;101504.60;;;13.70
69435;BMP180;56625;54.322;18.582;2023-06-04T04:29:24;101504.80;;;13.82
69435;BMP180;56625;54.322;18.582;2023-06-04T04:31:53;101506.60;;;13.90
69435;BMP180;56625;54.322;18.582;2023-06-04T04:34:20;101512.40;;;14.00
69435;BMP180;56625;54.322;18.582;2023-06-04T04:36:49;101509.80;;;14.00
69435;BMP180;56625;54.322;18.582;2023-06-04T04:39:24;101504.40;;;14.00
69435;BMP180;56625;54.322;18.582;2023-06-04T04:41:54;101512.40;;;14.00
69435;BMP180;56625;54.322;18.582;2023-06-04T04:44:23;101509.40;;;14.00
69435;BMP180;56625;54.322;18.582;2023-06-04T04:46:51;101504.80;;;14.06
69435;BMP180;56625;54.322;18.582;2023-06-04T04:49:19;101501.60;;;14.10
69435;BMP180;56625;54.322;18.582;2023-06-04T04:51:47;101501.20;;;14.20
69435;BMP180;56625;54.322;18.582;2023-06-04T04:54:15;101502.40;;;14.20
69435;BMP180;56625;54.322;18.582;2023-06-04T04:56:43;101501.40;;;14.20
69435;BMP180;56625;54.322;18.582;2023-06-04T04:59:10;101503.60;;;14.20
69435;BMP180;56625;54.322;18.582;2023-06-04T05:01:38;101497.20;;;14.14
69435;BMP180;56625;54.322;18.582;2023-06-04T05:04:06;101506.80;;;14.18
69435;BMP180;56625;54.322;18.582;2023-06-04T05:06:37;101507.40;;;14.20
69435;BMP180;56625;54.322;18.582;2023-06-04T05:09:05;101506.60;;;14.20
69435;BMP180;56625;54.322;18.582;2023-06-04T05:11:33;101508.00;;;14.20
69435;BMP180;56625;54.322;18.582;2023-06-04T05:14:01;101509.00;;;14.22
69435;BMP180;56625;54.322;18.582;2023-06-04T05:16:28;101505.40;;;14.30
69435;BMP180;56625;54.322;18.582;2023-06-04T05:18:57;101504.60;;;14.46
69435;BMP180;56625;54.322;18.582;2023-06-04T05:21:25;101505.20;;;14.58
69435;BMP180;56625;54.322;18.582;2023-06-04T05:23:54;101503.00;;;14.60
69435;BMP180;56625;54.322;18.582;2023-06-04T05:26:23;101499.40;;;14.80
69435;BMP180;56625;54.322;18.582;2023-06-04T05:28:53;101502.60;;;14.96
69435;BMP180;56625;54.322;18.582;2023-06-04T05:31:26;101497.20;;;15.10
69435;BMP180;56625;54.322;18.582;2023-06-04T05:33:54;101496.60;;;15.20
69435;BMP180;56625;54.322;18.582;2023-06-04T05:36:22;101496.20;;;15.38
69435;BMP180;56625;54.322;18.582;2023-06-04T05:38:50;101496.00;;;15.50
69435;BMP180;56625;54.322;18.582;2023-06-04T05:41:26;101494.20;;;15.68
69435;BMP180;56625;54.322;18.582;2023-06-04T05:43:55;101496.60;;;15.80
69435;BMP180;56625;54.322;18.582;2023-06-04T05:46:23;101495.00;;;15.86
69435;BMP180;56625;54.322;18.582;2023-06-04T05:48:52;101493.40;;;15.92
69435;BMP180;56625;54.322;18.582;2023-06-04T05:51:20;101498.00;;;16.00
69435;BMP180;56625;54.322;18.582;2023-06-04T05:53:48;101493.60;;;16.10
69435;BMP180;56625;54.322;18.582;2023-06-04T05:56:16;101499.00;;;16.20
69435;BMP180;56625;54.322;18.582;2023-06-04T05:58:52;101499.80;;;16.32
69435;BMP180;56625;54.322;18.582;2023-06-04T06:01:20;101497.60;;;16.40
69435;BMP180;56625;54.322;18.582;2023-06-04T06:03:49;101496.00;;;16.50
69435;BMP180;56625;54.322;18.582;2023-06-04T06:06:17;101501.00;;;16.60
69435;BMP180;56625;54.322;18.582;2023-06-04T06:08:47;101498.60;;;16.70
69435;BMP180;56625;54.322;18.582;2023-06-04T06:11:15;101504.20;;;16.70
69435;BMP180;56625;54.322;18.582;2023-06-04T06:13:44;101502.80;;;16.80
69435;BMP180;56625;54.322;18.582;2023-06-04T06:16:11;101503.20;;;16.90
69435;BMP180;56625;54.322;18.582;2023-06-04T06:18:40;101501.20;;;16.90
69435;BMP180;56625;54.322;18.582;2023-06-04T06:21:07;101507.40;;;17.00
69435;BMP180;56625;54.322;18.582;2023-06-04T06:23:36;101509.00;;;17.10
69435;BMP180;56625;54.322;18.582;2023-06-04T06:26:04;101504.00;;;17.20
69435;BMP180;56625;54.322;18.582;2023-06-04T06:28:35;101500.00;;;17.20
69435;BMP180;56625;54.322;18.582;2023-06-04T06:31:03;101502.60;;;17.26
69435;BMP180;56625;54.322;18.582;2023-06-04T06:33:32;101502.20;;;17.30
69435;BMP180;56625;54.322;18.582;2023-06-04T06:36:00;101501.80;;;17.32
69435;BMP180;56625;54.322;18.582;2023-06-04T06:38:28;101503.20;;;17.50
69435;BMP180;56625;54.322;18.582;2023-06-04T06:40:56;101507.20;;;17.70
69435;BMP180;56625;54.322;18.582;2023-06-04T06:43:24;101507.40;;;17.80
69435;BMP180;56625;54.322;18.582;2023-06-04T06:45:52;101508.20;;;17.80
69435;BMP180;56625;54.322;18.582;2023-06-04T06:48:20;101506.40;;;17.80
69435;BMP180;56625;54.322;18.582;2023-06-04T06:50:48;101504.40;;;17.80
69435;BMP180;56625;54.322;18.582;2023-06-04T06:53:16;101509.80;;;17.90
69435;BMP180;56625;54.322;18.582;2023-06-04T06:55:44;101508.00;;;17.90
69435;BMP180;56625;54.322;18.582;2023-06-04T06:58:12;101509.40;;;17.94
69435;BMP180;56625;54.322;18.582;2023-06-04T07:00:40;101508.60;;;18.00
69435;BMP180;56625;54.322;18.582;2023-06-04T07:03:08;101507.60;;;18.00
69435;BMP180;56625;54.322;18.582;2023-06-04T07:05:36;101507.80;;;18.10
69435;BMP180;56625;54.322;18.582;2023-06-04T07:08:04;101502.80;;;18.20
69435;BMP180;56625;54.322;18.582;2023-06-04T07:10:33;101501.80;;;18.30
69435;BMP180;56625;54.322;18.582;2023-06-04T07:13:00;101505.20;;;18.40
69435;BMP180;56625;54.322;18.582;2023-06-04T07:15:28;101503.40;;;18.40
69435;BMP180;56625;54.322;18.582;2023-06-04T07:17:56;101507.60;;;18.50
69435;BMP180;56625;54.322;18.582;2023-06-04T07:20:24;101510.80;;;18.58
69435;BMP180;56625;54.322;18.582;2023-06-04T07:22:52;101510.00;;;18.68
69435;BMP180;56625;54.322;18.582;2023-06-04T07:25:20;101514.80;;;18.76
69435;BMP180;56625;54.322;18.582;2023-06-04T07:27:50;101512.80;;;18.90
69435;BMP180;56625;54.322;18.582;2023-06-04T07:30:18;101514.40;;;18.90
69435;BMP180;56625;54.322;18.582;2023-06-04T07:32:49;101517.80;;;18.90
69435;BMP180;56625;54.322;18.582;2023-06-04T07:35:17;101511.80;;;19.00
69435;BMP180;56625;54.322;18.582;2023-06-04T07:37:45;101511.40;;;19.20
69435;BMP180;56625;54.322;18.582;2023-06-04T07:40:16;101511.60;;;19.30
69435;BMP180;56625;54.322;18.582;2023-06-04T07:42:46;101514.20;;;19.30
69435;BMP180;56625;54.322;18.582;2023-06-04T07:45:15;101511.00;;;19.30
69435;BMP180;56625;54.322;18.582;2023-06-04T07:47:43;101509.20;;;19.30
69435;BMP180;56625;54.322;18.582;2023-06-04T07:50:12;101512.40;;;19.30
69435;BMP180;56625;54.322;18.582;2023-06-04T07:52:40;101512.20;;;19.50
69435;BMP180;56625;54.322;18.582;2023-06-04T07:55:08;101512.20;;;19.66
69435;BMP180;56625;54.322;18.582;2023-06-04T07:57:36;101513.40;;;19.64
69435;BMP180;56625;54.322;18.582;2023-06-04T08:00:06;101511.60;;;19.70
69435;BMP180;56625;54.322;18.582;2023-06-04T08:02:35;101512.80;;;19.80
69435;BMP180;56625;54.322;18.582;2023-06-04T08:05:04;101509.40;;;20.00
69435;BMP180;56625;54.322;18.582;2023-06-04T08:07:32;101511.00;;;20.30
69435;BMP180;56625;54.322;18.582;2023-06-04T08:10:00;101511.80;;;20.20
69435;BMP180;56625;54.322;18.582;2023-06-04T08:12:28;101517.20;;;20.10
69435;BMP180;56625;54.322;18.582;2023-06-04T08:14:56;101519.20;;;20.12
69435;BMP180;56625;54.322;18.582;2023-06-04T08:17:24;101522.20;;;20.16
69435;BMP180;56625;54.322;18.582;2023-06-04T08:19:52;101516.40;;;20.20
69435;BMP180;56625;54.322;18.582;2023-06-04T08:22:20;101516.00;;;20.50
69435;BMP180;56625;54.322;18.582;2023-06-04T08:24:48;101518.60;;;20.44
69435;BMP180;56625;54.322;18.582;2023-06-04T08:27:16;101517.60;;;20.40
69435;BMP180;56625;54.322;18.582;2023-06-04T08:29:45;101515.00;;;20.50
69435;BMP180;56625;54.322;18.582;2023-06-04T08:32:13;101523.80;;;20.40
69435;BMP180;56625;54.322;18.582;2023-06-04T08:34:41;101515.00;;;20.30
69435;BMP180;56625;54.322;18.582;2023-06-04T08:37:09;101516.20;;;20.14
69435;BMP180;56625;54.322;18.582;2023-06-04T08:39:38;101515.20;;;20.28
69435;BMP180;56625;54.322;18.582;2023-06-04T08:42:10;101509.00;;;20.50
69435;BMP180;56625;54.322;18.582;2023-06-04T08:44:44;101514.60;;;20.70
69435;BMP180;56625;54.322;18.582;2023-06-04T08:47:14;101515.60;;;20.70
69435;BMP180;56625;54.322;18.582;2023-06-04T08:49:49;101512.60;;;20.90
69435;BMP180;56625;54.322;18.582;2023-06-04T08:52:18;101520.80;;;21.10
69435;BMP180;56625;54.322;18.582;2023-06-04T08:54:49;101514.60;;;21.30
69435;BMP180;56625;54.322;18.582;2023-06-04T08:57:21;101519.20;;;21.14
69435;BMP180;56625;54.322;18.582;2023-06-04T08:59:50;101519.80;;;21.04
69435;BMP180;56625;54.322;18.582;2023-06-04T09:02:18;101520.80;;;21.20
69435;BMP180;56625;54.322;18.582;2023-06-04T09:04:49;101521.00;;;21.30
69435;BMP180;56625;54.322;18.582;2023-06-04T09:07:17;101525.60;;;21.20
69435;BMP180;56625;54.322;18.582;2023-06-04T09:09:46;101522.80;;;21.00
69435;BMP180;56625;54.322;18.582;2023-06-04T09:12:28;101523.80;;;21.10
69435;BMP180;56625;54.322;18.582;2023-06-04T09:14:59;101523.20;;;21.20
69435;BMP180;56625;54.322;18.582;2023-06-04T09:17:28;101522.00;;;21.44
69435;BMP180;56625;54.322;18.582;2023-06-04T09:19:56;101514.60;;;21.80
69435;BMP180;56625;54.322;18.582;2023-06-04T09:22:35;101522.80;;;21.90
69435;BMP180;56625;54.322;18.582;2023-06-04T09:25:07;101516.40;;;22.04
69435;BMP180;56625;54.322;18.582;2023-06-04T09:27:46;101513.20;;;22.04
69435;BMP180;56625;54.322;18.582;2023-06-04T09:30:14;101516.40;;;21.90
69435;BMP180;56625;54.322;18.582;2023-06-04T09:32:42;101514.60;;;21.94
69435;BMP180;56625;54.322;18.582;2023-06-04T09:35:14;101511.60;;;22.00
69435;BMP180;56625;54.322;18.582;2023-06-04T09:37:54;101511.00;;;22.10
69435;BMP180;56625;54.322;18.582;2023-06-04T09:40:24;101517.40;;;22.00
69435;BMP180;56625;54.322;18.582;2023-06-04T09:42:52;101509.20;;;22.00
69435;BMP180;56625;54.322;18.582;2023-06-04T09:45:41;101509.80;;;22.00
69435;BMP180;56625;54.322;18.582;2023-06-04T09:48:19;101509.60;;;21.92
69435;BMP180;56625;54.322;18.582;2023-06-04T09:50:48;101506.80;;;22.10
69435;BMP180;56625;54.322;18.582;2023-06-04T09:53:20;101514.20;;;22.20
69435;BMP180;56625;54.322;18.582;2023-06-04T09:55:58;101516.80;;;22.42
69435;BMP180;56625;54.322;18.582;2023-06-04T09:58:28;101516.00;;;22.78
69435;BMP180;56625;54.322;18.582;2023-06-04T10:00:59;101518.60;;;22.80
69435;BMP180;56625;54.322;18.582;2023-06-04T10:03:32;101520.60;;;22.82
69435;BMP180;56625;54.322;18.582;2023-06-04T10:06:05;101525.60;;;22.90
69435;BMP180;56625;54.322;18.582;2023-06-04T10:08:34;101527.40;;;22.90
69435;BMP180;56625;54.322;18.582;2023-06-04T10:11:03;101525.00;;;22.90
69435;BMP180;56625;54.322;18.582;2023-06-04T10:13:48;101525.60;;;23.10
69435;BMP180;56625;54.322;18.582;2023-06-04T10:16:19;101524.00;;;23.00
69435;BMP180;56625;54.322;18.582;2023-06-04T10:19:01;101526.00;;;22.90
69435;BMP180;56625;54.322;18.582;2023-06-04T10:21:32;101523.00;;;22.98
69435;BMP180;56625;54.322;18.582;2023-06-04T10:24:03;101520.20;;;23.00
69435;BMP180;56625;54.322;18.582;2023-06-04T10:26:36;101523.40;;;23.00
69435;BMP180;56625;54.322;18.582;2023-06-04T10:29:06;101527.40;;;22.80
69435;BMP180;56625;54.322;18.582;2023-06-04T10:31:36;101525.60;;;22.60
69435;BMP180;56625;54.322;18.582;2023-06-04T10:34:05;101523.40;;;22.50
69435;BMP180;56625;54.322;18.582;2023-06-04T10:36:43;101523.80;;;22.40
69435;BMP180;56625;54.322;18.582;2023-06-04T10:39:13;101528.60;;;22.30
69435;BMP180;56625;54.322;18.582;2023-06-04T10:41:41;101523.80;;;22.30
69435;BMP180;56625;54.322;18.582;2023-06-04T10:44:10;101528.60;;;22.38
69435;BMP180;56625;54.322;18.582;2023-06-04T10:46:41;101524.60;;;22.54
69435;BMP180;56625;54.322;18.582;2023-06-04T10:49:10;101522.20;;;22.70
69435;BMP180;56625;54.322;18.582;2023-06-04T10:51:40;101530.40;;;22.90
69435;BMP180;56625;54.322;18.582;2023-06-04T10:54:08;101526.60;;;22.90
69435;BMP180;56625;54.322;18.582;2023-06-04T10:56:36;101529.20;;;22.90
69435;BMP180;56625;54.322;18.582;2023-06-04T10:59:17;101527.40;;;22.88
69435;BMP180;56625;54.322;18.582;2023-06-04T11:01:46;101528.20;;;22.90
69435;BMP180;56625;54.322;18.582;2023-06-04T11:04:20;101530.20;;;22.90
69435;BMP180;56625;54.322;18.582;2023-06-04T11:07:06;101529.00;;;22.90
69435;BMP180;56625;54.322;18.582;2023-06-04T11:09:50;101533.40;;;22.72
69435;BMP180;56625;54.322;18.582;2023-06-04T11:12:18;101529.60;;;22.52
69435;BMP180;56625;54.322;18.582;2023-06-04T11:14:58;101528.00;;;22.40
69435;BMP180;56625;54.322;18.582;2023-06-04T11:17:27;101530.00;;;22.40
69435;BMP180;56625;54.322;18.582;2023-06-04T11:19:57;101526.80;;;22.60
69435;BMP180;56625;54.322;18.582;2023-06-04T11:22:25;101531.60;;;22.60
69435;BMP180;56625;54.322;18.582;2023-06-04T11:24:57;101543.40;;;22.50
69435;BMP180;56625;54.322;18.582;2023-06-04T11:27:28;101540.20;;;22.40
69435;BMP180;56625;54.322;18.582;2023-06-04T11:30:08;101538.00;;;22.20
69435;BMP180;56625;54.322;18.582;2023-06-04T11:32:36;101545.60;;;22.10
69435;BMP180;56625;54.322;18.582;2023-06-04T11:35:05;101548.00;;;21.90
69435;BMP180;56625;54.322;18.582;2023-06-04T11:37:34;101545.40;;;21.80
69435;BMP180;56625;54.322;18.582;2023-06-04T11:40:24;101545.60;;;21.66
69435;BMP180;56625;54.322;18.582;2023-06-04T11:42:54;101547.40;;;21.50
69435;BMP180;56625;54.322;18.582;2023-06-04T11:45:23;101543.40;;;21.34
69435;BMP180;56625;54.322;18.582;2023-06-04T11:47:55;101548.60;;;21.30
69435;BMP180;56625;54.322;18.582;2023-06-04T11:50:28;101560.80;;;21.22
69435;BMP180;56625;54.322;18.582;2023-06-04T11:52:56;101553.00;;;21.00
69435;BMP180;56625;54.322;18.582;2023-06-04T11:55:26;101551.20;;;20.78
69435;BMP180;56625;54.322;18.582;2023-06-04T11:57:54;101543.20;;;20.70
69435;BMP180;56625;54.322;18.582;2023-06-04T12:00:22;101553.60;;;20.80
69435;BMP180;56625;54.322;18.582;2023-06-04T12:02:55;101546.40;;;20.74
69435;BMP180;56625;54.322;18.582;2023-06-04T12:05:29;101545.40;;;20.82
69435;BMP180;56625;54.322;18.582;2023-06-04T12:08:10;101547.40;;;20.60
69435;BMP180;56625;54.322;18.582;2023-06-04T12:10:40;101541.40;;;20.40
69435;BMP180;56625;54.322;18.582;2023-06-04T12:13:10;101550.60;;;20.40
69435;BMP180;56625;54.322;18.582;2023-06-04T12:15:38;101550.20;;;20.40
69435;BMP180;56625;54.322;18.582;2023-06-04T12:18:07;101543.20;;;20.42
69435;BMP180;56625;54.322;18.582;2023-06-04T12:20:39;101554.20;;;20.50
69435;BMP180;56625;54.322;18.582;2023-06-04T12:23:20;101553.20;;;20.60
69435;BMP180;56625;54.322;18.582;2023-06-04T12:25:52;101548.60;;;20.60
69435;BMP180;56625;54.322;18.582;2023-06-04T12:28:19;101549.20;;;20.70
69435;BMP180;56625;54.322;18.582;2023-06-04T12:30:47;101545.40;;;20.66
69435;BMP180;56625;54.322;18.582;2023-06-04T12:33:15;101540.40;;;20.60
69435;BMP180;56625;54.322;18.582;2023-06-04T12:35:43;101550.60;;;20.58
69435;BMP180;56625;54.322;18.582;2023-06-04T12:38:12;101559.60;;;20.60
69435;BMP180;56625;54.322;18.582;2023-06-04T12:40:40;101560.00;;;20.50
69435;BMP180;56625;54.322;18.582;2023-06-04T12:43:09;101552.00;;;20.54
69435;BMP180;56625;54.322;18.582;2023-06-04T12:45:37;101546.60;;;20.42
69435;BMP180;56625;54.322;18.582;2023-06-04T12:48:05;101549.60;;;20.30
69435;BMP180;56625;54.322;18.582;2023-06-04T12:50:33;101561.80;;;20.24
69435;BMP180;56625;54.322;18.582;2023-06-04T12:53:01;101559.80;;;20.22
69435;BMP180;56625;54.322;18.582;2023-06-04T12:55:29;101562.60;;;20.30
69435;BMP180;56625;54.322;18.582;2023-06-04T12:57:57;101567.40;;;20.28
69435;BMP180;56625;54.322;18.582;2023-06-04T13:00:26;101571.80;;;20.10
69435;BMP180;56625;54.322;18.582;2023-06-04T13:02:54;101570.20;;;19.76
69435;BMP180;56625;54.322;18.582;2023-06-04T13:05:22;101564.80;;;19.60
69435;BMP180;56625;54.322;18.582;2023-06-04T13:07:50;101571.00;;;19.66
69435;BMP180;56625;54.322;18.582;2023-06-04T13:10:19;101581.20;;;19.60
69435;BMP180;56625;54.322;18.582;2023-06-04T13:12:47;101578.00;;;19.48
69435;BMP180;56625;54.322;18.582;2023-06-04T13:15:15;101582.00;;;19.40
69435;BMP180;56625;54.322;18.582;2023-06-04T13:17:43;101571.60;;;19.32
69435;BMP180;56625;54.322;18.582;2023-06-04T13:20:12;101581.20;;;19.40
69435;BMP180;56625;54.322;18.582;2023-06-04T13:22:40;101577.20;;;19.48
69435;BMP180;56625;54.322;18.582;2023-06-04T13:25:08;101565.60;;;19.50
69435;BMP180;56625;54.322;18.582;2023-06-04T13:27:36;101565.20;;;19.40
69435;BMP180;56625;54.322;18.582;2023-06-04T13:30:05;101570.40;;;19.50
69435;BMP180;56625;54.322;18.582;2023-06-04T13:32:33;101563.20;;;19.54
69435;BMP180;56625;54.322;18.582;2023-06-04T13:35:01;101567.60;;;19.56
69435;BMP180;56625;54.322;18.582;2023-06-04T13:37:30;101557.80;;;19.54
69435;BMP180;56625;54.322;18.582;2023-06-04T13:39:58;101564.60;;;19.50
69435;BMP180;56625;54.322;18.582;2023-06-04T13:42:26;101562.60;;;19.50
69435;BMP180;56625;54.322;18.582;2023-06-04T13:44:53;101567.80;;;19.60
69435;BMP180;56625;54.322;18.582;2023-06-04T13:47:22;101564.20;;;19.60
69435;BMP180;56625;54.322;18.582;2023-06-04T13:49:50;101558.20;;;19.62
69435;BMP180;56625;54.322;18.582;2023-06-04T13:52:18;101557.60;;;19.40
69435;BMP180;56625;54.322;18.582;2023-06-04T13:54:46;101559.40;;;19.44
69435;BMP180;56625;54.322;18.582;2023-06-04T13:57:13;101558.60;;;19.58
69435;BMP180;56625;54.322;18.582;2023-06-04T13:59:41;101554.40;;;19.40
69435;BMP180;56625;54.322;18.582;2023-06-04T14:02:09;101556.80;;;19.30
69435;BMP180;56625;54.322;18.582;2023-06-04T14:04:37;101556.80;;;19.20
69435;BMP180;56625;54.322;18.582;2023-06-04T14:07:05;101555.40;;;19.20